sensor_id;sensor_type;location;lat;lon;timestamp;P1;durP1;ratioP1;P2;durP2;ratioP2
13469;SDS011;6807;48.682;9.032;2022-12-13T00:02:09;14.20;;;9.00;;
13469;SDS011;6807;48.682;9.032;2022-12-13T00:04:37;15.37;;;9.83;;
13469;SDS011;6807;48.682;9.032;2022-12-13T00:07:05;19.93;;;11.27;;
13469;SDS011;6807;48.682;9.032;2022-12-13T00:09:32;17.47;;;9.33;;
13469;SDS011;6807;48.682;9.032;2022-12-13T00:12:00;10.97;;;5.93;;
13469;SDS011;6807;48.682;9.032;2022-12-13T00:14:27;20.70;;;11.27;;
13469;SDS011;6807;48.682;9.032;2022-12-13T00:16:56;14.53;;;10.20;;
13469;SDS011;6807;48.682;9.032;2022-12-13T00:19:24;9.63;;;7.23;;
13469;SDS011;6807;48.682;9.032;2022-12-13T00:21:51;19.50;;;12.07;;
13469;SDS011;6807;48.682;9.032;2022-12-13T00:24:19;21.35;;;11.70;;
13469;SDS011;6807;48.682;9.032;2022-12-13T00:26:47;22.00;;;11.87;;
13469;SDS011;6807;48.682;9.032;2022-12-13T00:29:14;20.43;;;12.40;;
13469;SDS011;6807;48.682;9.032;2022-12-13T00:31:41;26.33;;;11.13;;
13469;SDS011;6807;48.682;9.032;2022-12-13T00:34:08;25.37;;;12.37;;
13469;SDS011;6807;48.682;9.032;2022-12-13T00:36:36;21.83;;;10.97;;
13469;SDS011;6807;48.682;9.032;2022-12-13T00:39:03;20.93;;;12.77;;
13469;SDS011;6807;48.682;9.032;2022-12-13T00:41:32;17.92;;;10.60;;
13469;SDS011;6807;48.682;9.032;2022-12-13T00:44:00;27.67;;;11.93;;
13469;SDS011;6807;48.682;9.032;2022-12-13T00:46:28;19.93;;;11.73;;
13469;SDS011;6807;48.682;9.032;2022-12-13T00:48:57;22.57;;;11.40;;
13469;SDS011;6807;48.682;9.032;2022-12-13T00:51:26;19.90;;;12.13;;
13469;SDS011;6807;48.682;9.032;2022-12-13T00:53:55;19.90;;;11.07;;
13469;SDS011;6807;48.682;9.032;2022-12-13T00:56:23;18.37;;;11.67;;
13469;SDS011;6807;48.682;9.032;2022-12-13T00:58:53;20.27;;;12.03;;
13469;SDS011;6807;48.682;9.032;2022-12-13T01:01:21;19.60;;;11.27;;
13469;SDS011;6807;48.682;9.032;2022-12-13T01:03:49;21.87;;;11.93;;
13469;SDS011;6807;48.682;9.032;2022-12-13T01:06:17;26.07;;;11.73;;
13469;SDS011;6807;48.682;9.032;2022-12-13T01:08:45;19.73;;;10.27;;
13469;SDS011;6807;48.682;9.032;2022-12-13T01:11:13;19.37;;;11.73;;
13469;SDS011;6807;48.682;9.032;2022-12-13T01:13:41;20.20;;;10.47;;
13469;SDS011;6807;48.682;9.032;2022-12-13T01:16:10;18.23;;;9.63;;
13469;SDS011;6807;48.682;9.032;2022-12-13T01:18:38;18.83;;;11.30;;
13469;SDS011;6807;48.682;9.032;2022-12-13T01:21:06;15.43;;;9.43;;
13469;SDS011;6807;48.682;9.032;2022-12-13T01:23:33;18.80;;;10.30;;
13469;SDS011;6807;48.682;9.032;2022-12-13T01:26:01;20.10;;;9.73;;
13469;SDS011;6807;48.682;9.032;2022-12-13T01:28:29;14.60;;;8.67;;
13469;SDS011;6807;48.682;9.032;2022-12-13T01:30:57;16.50;;;9.47;;
13469;SDS011;6807;48.682;9.032;2022-12-13T01:33:26;15.73;;;8.93;;
13469;SDS011;6807;48.682;9.032;2022-12-13T01:35:54;18.10;;;11.20;;
13469;SDS011;6807;48.682;9.032;2022-12-13T01:38:21;16.83;;;9.70;;
13469;SDS011;6807;48.682;9.032;2022-12-13T01:40:50;20.63;;;10.30;;
13469;SDS011;6807;48.682;9.032;2022-12-13T01:43:22;19.73;;;11.60;;
13469;SDS011;6807;48.682;9.032;2022-12-13T01:45:49;17.97;;;10.13;;
13469;SDS011;6807;48.682;9.032;2022-12-13T01:48:18;16.50;;;10.07;;
13469;SDS011;6807;48.682;9.032;2022-12-13T01:50:49;17.30;;;11.00;;
13469;SDS011;6807;48.682;9.032;2022-12-13T01:53:17;19.20;;;11.30;;
13469;SDS011;6807;48.682;9.032;2022-12-13T01:55:46;23.57;;;12.67;;
13469;SDS011;6807;48.682;9.032;2022-12-13T01:58:15;19.90;;;11.07;;
13469;SDS011;6807;48.682;9.032;2022-12-13T02:00:43;23.87;;;12.37;;
13469;SDS011;6807;48.682;9.032;2022-12-13T02:03:11;21.07;;;11.93;;
13469;SDS011;6807;48.682;9.032;2022-12-13T02:05:40;17.70;;;8.87;;
13469;SDS011;6807;48.682;9.032;2022-12-13T02:08:10;20.83;;;11.03;;
13469;SDS011;6807;48.682;9.032;2022-12-13T02:10:39;15.37;;;10.13;;
13469;SDS011;6807;48.682;9.032;2022-12-13T02:13:08;17.37;;;11.10;;
13469;SDS011;6807;48.682;9.032;2022-12-13T02:15:37;20.17;;;10.67;;
13469;SDS011;6807;48.682;9.032;2022-12-13T02:18:11;17.13;;;10.47;;
13469;SDS011;6807;48.682;9.032;2022-12-13T02:20:42;16.83;;;9.73;;
13469;SDS011;6807;48.682;9.032;2022-12-13T02:23:18;20.27;;;10.27;;
13469;SDS011;6807;48.682;9.032;2022-12-13T02:25:55;17.37;;;10.63;;
13469;SDS011;6807;48.682;9.032;2022-12-13T02:28:32;15.00;;;8.63;;
13469;SDS011;6807;48.682;9.032;2022-12-13T02:31:03;17.77;;;10.47;;
13469;SDS011;6807;48.682;9.032;2022-12-13T02:33:35;15.13;;;9.63;;
13469;SDS011;6807;48.682;9.032;2022-12-13T02:36:05;21.13;;;10.07;;
13469;SDS011;6807;48.682;9.032;2022-12-13T02:38:35;22.60;;;11.17;;
13469;SDS011;6807;48.682;9.032;2022-12-13T02:41:04;15.77;;;9.40;;
13469;SDS011;6807;48.682;9.032;2022-12-13T02:43:34;19.30;;;9.33;;
13469;SDS011;6807;48.682;9.032;2022-12-13T02:46:06;19.10;;;9.90;;
13469;SDS011;6807;48.682;9.032;2022-12-13T02:48:35;25.40;;;10.17;;
13469;SDS011;6807;48.682;9.032;2022-12-13T02:51:06;21.87;;;11.47;;
13469;SDS011;6807;48.682;9.032;2022-12-13T02:53:35;21.00;;;11.07;;
13469;SDS011;6807;48.682;9.032;2022-12-13T02:56:03;17.30;;;10.80;;
13469;SDS011;6807;48.682;9.032;2022-12-13T02:58:32;15.53;;;11.53;;
13469;SDS011;6807;48.682;9.032;2022-12-13T03:01:03;18.10;;;10.53;;
13469;SDS011;6807;48.682;9.032;2022-12-13T03:03:36;14.63;;;8.33;;
13469;SDS011;6807;48.682;9.032;2022-12-13T03:06:12;19.37;;;9.63;;
13469;SDS011;6807;48.682;9.032;2022-12-13T03:08:59;20.93;;;11.03;;
13469;SDS011;6807;48.682;9.032;2022-12-13T03:11:36;15.63;;;10.90;;
13469;SDS011;6807;48.682;9.032;2022-12-13T03:14:26;18.17;;;8.90;;
13469;SDS011;6807;48.682;9.032;2022-12-13T03:16:56;12.57;;;8.53;;
13469;SDS011;6807;48.682;9.032;2022-12-13T03:19:26;16.80;;;10.40;;
13469;SDS011;6807;48.682;9.032;2022-12-13T03:21:54;21.97;;;11.33;;
13469;SDS011;6807;48.682;9.032;2022-12-13T03:24:21;18.33;;;9.13;;
13469;SDS011;6807;48.682;9.032;2022-12-13T03:26:49;18.57;;;10.90;;
13469;SDS011;6807;48.682;9.032;2022-12-13T03:29:17;18.83;;;10.00;;
13469;SDS011;6807;48.682;9.032;2022-12-13T03:31:45;17.27;;;9.57;;
13469;SDS011;6807;48.682;9.032;2022-12-13T03:34:12;15.43;;;10.37;;
13469;SDS011;6807;48.682;9.032;2022-12-13T03:36:41;16.93;;;11.50;;
13469;SDS011;6807;48.682;9.032;2022-12-13T03:39:12;16.30;;;9.90;;
13469;SDS011;6807;48.682;9.032;2022-12-13T03:41:39;18.13;;;10.60;;
13469;SDS011;6807;48.682;9.032;2022-12-13T03:44:07;18.47;;;9.97;;
13469;SDS011;6807;48.682;9.032;2022-12-13T03:49:10;18.80;;;10.20;;
13469;SDS011;6807;48.682;9.032;2022-12-13T03:51:37;23.80;;;10.23;;
13469;SDS011;6807;48.682;9.032;2022-12-13T03:54:07;19.73;;;10.97;;
13469;SDS011;6807;48.682;9.032;2022-12-13T03:56:34;15.17;;;9.17;;
13469;SDS011;6807;48.682;9.032;2022-12-13T03:59:01;16.53;;;9.73;;
13469;SDS011;6807;48.682;9.032;2022-12-13T04:01:29;21.03;;;10.60;;
13469;SDS011;6807;48.682;9.032;2022-12-13T04:03:56;16.93;;;9.33;;
13469;SDS011;6807;48.682;9.032;2022-12-13T04:06:31;11.80;;;7.33;;
13469;SDS011;6807;48.682;9.032;2022-12-13T04:09:11;16.60;;;10.70;;
13469;SDS011;6807;48.682;9.032;2022-12-13T04:11:39;16.47;;;9.63;;
13469;SDS011;6807;48.682;9.032;2022-12-13T04:14:23;15.00;;;9.40;;
13469;SDS011;6807;48.682;9.032;2022-12-13T04:16:51;17.03;;;10.53;;
13469;SDS011;6807;48.682;9.032;2022-12-13T04:19:18;18.93;;;10.63;;
13469;SDS011;6807;48.682;9.032;2022-12-13T04:21:48;16.03;;;9.23;;
13469;SDS011;6807;48.682;9.032;2022-12-13T04:24:16;13.40;;;7.93;;
13469;SDS011;6807;48.682;9.032;2022-12-13T04:26:51;19.27;;;10.37;;
13469;SDS011;6807;48.682;9.032;2022-12-13T04:29:19;14.10;;;9.50;;
13469;SDS011;6807;48.682;9.032;2022-12-13T04:31:51;16.00;;;9.63;;
13469;SDS011;6807;48.682;9.032;2022-12-13T04:34:18;15.50;;;8.97;;
13469;SDS011;6807;48.682;9.032;2022-12-13T04:36:46;14.73;;;9.67;;
13469;SDS011;6807;48.682;9.032;2022-12-13T04:39:17;17.50;;;8.67;;
13469;SDS011;6807;48.682;9.032;2022-12-13T04:41:44;19.03;;;10.97;;
13469;SDS011;6807;48.682;9.032;2022-12-13T04:44:11;18.67;;;9.30;;
13469;SDS011;6807;48.682;9.032;2022-12-13T04:46:39;12.23;;;7.63;;
13469;SDS011;6807;48.682;9.032;2022-12-13T04:49:12;21.70;;;11.87;;
13469;SDS011;6807;48.682;9.032;2022-12-13T04:51:39;21.33;;;8.77;;
13469;SDS011;6807;48.682;9.032;2022-12-13T04:54:09;9.73;;;7.83;;
13469;SDS011;6807;48.682;9.032;2022-12-13T04:56:37;14.50;;;8.40;;
13469;SDS011;6807;48.682;9.032;2022-12-13T04:59:05;13.43;;;8.50;;
13469;SDS011;6807;48.682;9.032;2022-12-13T05:01:32;11.67;;;7.33;;
13469;SDS011;6807;48.682;9.032;2022-12-13T05:04:00;17.10;;;9.53;;
13469;SDS011;6807;48.682;9.032;2022-12-13T05:06:36;16.73;;;8.63;;
13469;SDS011;6807;48.682;9.032;2022-12-13T05:09:05;12.70;;;7.30;;
13469;SDS011;6807;48.682;9.032;2022-12-13T05:14:12;15.80;;;8.67;;
13469;SDS011;6807;48.682;9.032;2022-12-13T05:16:40;16.83;;;9.00;;
13469;SDS011;6807;48.682;9.032;2022-12-13T05:21:38;15.57;;;9.97;;
13469;SDS011;6807;48.682;9.032;2022-12-13T05:24:07;15.07;;;9.27;;
13469;SDS011;6807;48.682;9.032;2022-12-13T05:26:35;17.37;;;8.43;;
13469;SDS011;6807;48.682;9.032;2022-12-13T05:29:03;8.73;;;5.90;;
13469;SDS011;6807;48.682;9.032;2022-12-13T05:31:32;18.80;;;10.07;;
13469;SDS011;6807;48.682;9.032;2022-12-13T05:34:00;17.40;;;9.13;;
13469;SDS011;6807;48.682;9.032;2022-12-13T05:36:27;30.83;;;17.00;;
13469;SDS011;6807;48.682;9.032;2022-12-13T05:38:55;21.60;;;11.17;;
13469;SDS011;6807;48.682;9.032;2022-12-13T05:41:23;17.10;;;10.83;;
13469;SDS011;6807;48.682;9.032;2022-12-13T05:43:51;21.27;;;11.70;;
13469;SDS011;6807;48.682;9.032;2022-12-13T05:46:19;16.00;;;10.37;;
13469;SDS011;6807;48.682;9.032;2022-12-13T05:48:48;20.60;;;11.37;;
13469;SDS011;6807;48.682;9.032;2022-12-13T05:51:15;13.73;;;8.63;;
13469;SDS011;6807;48.682;9.032;2022-12-13T05:53:47;14.57;;;8.47;;
13469;SDS011;6807;48.682;9.032;2022-12-13T05:56:15;15.43;;;9.07;;
13469;SDS011;6807;48.682;9.032;2022-12-13T05:58:48;11.93;;;7.67;;
13469;SDS011;6807;48.682;9.032;2022-12-13T06:01:16;16.00;;;9.30;;
13469;SDS011;6807;48.682;9.032;2022-12-13T06:03:43;16.00;;;9.37;;
13469;SDS011;6807;48.682;9.032;2022-12-13T06:06:12;16.57;;;9.23;;
13469;SDS011;6807;48.682;9.032;2022-12-13T06:08:41;16.00;;;9.33;;
13469;SDS011;6807;48.682;9.032;2022-12-13T06:11:09;12.47;;;8.20;;
13469;SDS011;6807;48.682;9.032;2022-12-13T06:13:36;12.97;;;9.03;;
13469;SDS011;6807;48.682;9.032;2022-12-13T06:16:04;15.40;;;9.73;;
13469;SDS011;6807;48.682;9.032;2022-12-13T06:18:33;19.03;;;9.70;;
13469;SDS011;6807;48.682;9.032;2022-12-13T06:21:01;13.80;;;8.50;;
13469;SDS011;6807;48.682;9.032;2022-12-13T06:23:30;13.17;;;8.93;;
13469;SDS011;6807;48.682;9.032;2022-12-13T06:28:37;27.80;;;14.55;;
13469;SDS011;6807;48.682;9.032;2022-12-13T06:31:05;16.47;;;9.20;;
13469;SDS011;6807;48.682;9.032;2022-12-13T06:33:33;17.00;;;9.73;;
13469;SDS011;6807;48.682;9.032;2022-12-13T06:36:02;15.90;;;10.13;;
13469;SDS011;6807;48.682;9.032;2022-12-13T06:38:41;17.47;;;8.87;;
13469;SDS011;6807;48.682;9.032;2022-12-13T06:41:08;16.97;;;9.00;;
13469;SDS011;6807;48.682;9.032;2022-12-13T06:43:36;26.13;;;13.90;;
13469;SDS011;6807;48.682;9.032;2022-12-13T06:46:04;20.77;;;10.53;;
13469;SDS011;6807;48.682;9.032;2022-12-13T06:48:31;15.43;;;10.43;;
13469;SDS011;6807;48.682;9.032;2022-12-13T06:50:59;26.83;;;9.50;;
13469;SDS011;6807;48.682;9.032;2022-12-13T06:53:27;16.53;;;9.83;;
13469;SDS011;6807;48.682;9.032;2022-12-13T07:01:43;13.70;;;8.57;;
13469;SDS011;6807;48.682;9.032;2022-12-13T07:04:11;28.35;;;16.40;;
13469;SDS011;6807;48.682;9.032;2022-12-13T07:06:38;20.40;;;11.90;;
13469;SDS011;6807;48.682;9.032;2022-12-13T07:09:06;18.43;;;9.73;;
13469;SDS011;6807;48.682;9.032;2022-12-13T07:14:30;22.60;;;11.20;;
13469;SDS011;6807;48.682;9.032;2022-12-13T07:16:59;18.73;;;8.63;;
13469;SDS011;6807;48.682;9.032;2022-12-13T07:19:27;19.27;;;10.90;;
13469;SDS011;6807;48.682;9.032;2022-12-13T07:21:54;25.53;;;10.57;;
13469;SDS011;6807;48.682;9.032;2022-12-13T07:24:34;22.00;;;10.83;;
13469;SDS011;6807;48.682;9.032;2022-12-13T07:27:02;22.93;;;11.17;;
13469;SDS011;6807;48.682;9.032;2022-12-13T07:29:29;18.40;;;9.97;;
13469;SDS011;6807;48.682;9.032;2022-12-13T07:31:57;16.30;;;9.77;;
13469;SDS011;6807;48.682;9.032;2022-12-13T07:34:26;15.37;;;9.23;;
13469;SDS011;6807;48.682;9.032;2022-12-13T07:36:53;18.80;;;11.03;;
13469;SDS011;6807;48.682;9.032;2022-12-13T07:39:22;28.23;;;11.97;;
13469;SDS011;6807;48.682;9.032;2022-12-13T07:41:52;14.13;;;9.13;;
13469;SDS011;6807;48.682;9.032;2022-12-13T07:46:51;17.87;;;10.03;;
13469;SDS011;6807;48.682;9.032;2022-12-13T07:49:19;22.30;;;11.87;;
13469;SDS011;6807;48.682;9.032;2022-12-13T07:51:47;17.10;;;10.87;;
13469;SDS011;6807;48.682;9.032;2022-12-13T07:54:15;17.60;;;11.27;;
13469;SDS011;6807;48.682;9.032;2022-12-13T07:56:48;24.27;;;12.33;;
13469;SDS011;6807;48.682;9.032;2022-12-13T07:59:28;24.50;;;11.40;;
13469;SDS011;6807;48.682;9.032;2022-12-13T08:01:55;19.83;;;11.07;;
13469;SDS011;6807;48.682;9.032;2022-12-13T08:04:23;22.80;;;13.23;;
13469;SDS011;6807;48.682;9.032;2022-12-13T08:06:56;19.70;;;11.10;;
13469;SDS011;6807;48.682;9.032;2022-12-13T08:09:24;18.27;;;10.63;;
13469;SDS011;6807;48.682;9.032;2022-12-13T08:11:54;26.10;;;15.20;;
13469;SDS011;6807;48.682;9.032;2022-12-13T08:14:21;24.87;;;12.50;;
13469;SDS011;6807;48.682;9.032;2022-12-13T08:16:55;19.63;;;11.10;;
13469;SDS011;6807;48.682;9.032;2022-12-13T08:19:23;20.87;;;13.03;;
13469;SDS011;6807;48.682;9.032;2022-12-13T08:24:44;25.70;;;13.57;;
13469;SDS011;6807;48.682;9.032;2022-12-13T08:27:11;20.67;;;12.10;;
13469;SDS011;6807;48.682;9.032;2022-12-13T08:29:50;22.37;;;12.80;;
13469;SDS011;6807;48.682;9.032;2022-12-13T08:32:18;28.73;;;13.47;;
13469;SDS011;6807;48.682;9.032;2022-12-13T08:34:45;21.20;;;12.70;;
13469;SDS011;6807;48.682;9.032;2022-12-13T08:37:12;14.73;;;10.55;;
13469;SDS011;6807;48.682;9.032;2022-12-13T08:39:42;20.95;;;12.32;;
13469;SDS011;6807;48.682;9.032;2022-12-13T08:42:20;21.60;;;12.50;;
13469;SDS011;6807;48.682;9.032;2022-12-13T08:47:43;24.17;;;12.97;;
13469;SDS011;6807;48.682;9.032;2022-12-13T08:50:11;30.48;;;14.50;;
13469;SDS011;6807;48.682;9.032;2022-12-13T08:52:38;22.17;;;12.30;;
13469;SDS011;6807;48.682;9.032;2022-12-13T08:55:11;9.03;;;6.70;;
13469;SDS011;6807;48.682;9.032;2022-12-13T08:57:39;20.77;;;11.03;;
13469;SDS011;6807;48.682;9.032;2022-12-13T09:00:07;14.25;;;8.95;;
13469;SDS011;6807;48.682;9.032;2022-12-13T09:02:36;19.15;;;9.18;;
13469;SDS011;6807;48.682;9.032;2022-12-13T09:05:04;18.33;;;9.55;;
13469;SDS011;6807;48.682;9.032;2022-12-13T09:07:32;17.92;;;8.95;;
13469;SDS011;6807;48.682;9.032;2022-12-13T09:10:00;9.32;;;5.78;;
13469;SDS011;6807;48.682;9.032;2022-12-13T09:12:29;15.60;;;8.85;;
13469;SDS011;6807;48.682;9.032;2022-12-13T09:14:57;11.80;;;7.80;;
13469;SDS011;6807;48.682;9.032;2022-12-13T09:17:25;15.00;;;8.00;;
13469;SDS011;6807;48.682;9.032;2022-12-13T09:19:52;16.08;;;10.63;;
13469;SDS011;6807;48.682;9.032;2022-12-13T09:22:20;13.00;;;8.30;;
13469;SDS011;6807;48.682;9.032;2022-12-13T09:24:47;11.27;;;6.93;;
13469;SDS011;6807;48.682;9.032;2022-12-13T09:27:15;15.52;;;9.43;;
13469;SDS011;6807;48.682;9.032;2022-12-13T09:29:45;13.77;;;8.35;;
13469;SDS011;6807;48.682;9.032;2022-12-13T09:32:13;11.05;;;7.93;;
13469;SDS011;6807;48.682;9.032;2022-12-13T09:34:40;16.63;;;9.20;;
13469;SDS011;6807;48.682;9.032;2022-12-13T09:37:07;16.20;;;9.05;;
13469;SDS011;6807;48.682;9.032;2022-12-13T09:39:38;16.15;;;9.95;;
13469;SDS011;6807;48.682;9.032;2022-12-13T09:42:20;13.77;;;8.23;;
13469;SDS011;6807;48.682;9.032;2022-12-13T09:44:51;16.65;;;10.02;;
13469;SDS011;6807;48.682;9.032;2022-12-13T09:47:22;12.70;;;6.78;;
13469;SDS011;6807;48.682;9.032;2022-12-13T09:49:52;13.85;;;7.70;;
13469;SDS011;6807;48.682;9.032;2022-12-13T09:52:23;11.18;;;7.55;;
13469;SDS011;6807;48.682;9.032;2022-12-13T09:54:52;6.50;;;4.65;;
13469;SDS011;6807;48.682;9.032;2022-12-13T09:57:21;19.42;;;10.25;;
13469;SDS011;6807;48.682;9.032;2022-12-13T09:59:52;10.57;;;5.97;;
13469;SDS011;6807;48.682;9.032;2022-12-13T10:02:23;15.65;;;7.70;;
13469;SDS011;6807;48.682;9.032;2022-12-13T10:04:51;14.68;;;8.13;;
13469;SDS011;6807;48.682;9.032;2022-12-13T10:07:19;8.07;;;4.50;;
13469;SDS011;6807;48.682;9.032;2022-12-13T10:09:46;11.10;;;6.82;;
13469;SDS011;6807;48.682;9.032;2022-12-13T10:12:16;5.15;;;3.97;;
13469;SDS011;6807;48.682;9.032;2022-12-13T10:14:47;15.65;;;8.73;;
13469;SDS011;6807;48.682;9.032;2022-12-13T10:17:19;16.13;;;9.02;;
13469;SDS011;6807;48.682;9.032;2022-12-13T10:19:48;14.95;;;8.48;;
13469;SDS011;6807;48.682;9.032;2022-12-13T10:22:17;17.35;;;9.30;;
13469;SDS011;6807;48.682;9.032;2022-12-13T10:24:50;16.63;;;9.75;;
13469;SDS011;6807;48.682;9.032;2022-12-13T10:27:18;27.30;;;8.23;;
13469;SDS011;6807;48.682;9.032;2022-12-13T10:29:55;7.85;;;5.53;;
13469;SDS011;6807;48.682;9.032;2022-12-13T10:32:25;12.75;;;6.72;;
13469;SDS011;6807;48.682;9.032;2022-12-13T10:34:52;10.43;;;6.80;;
13469;SDS011;6807;48.682;9.032;2022-12-13T10:37:30;10.80;;;6.88;;
13469;SDS011;6807;48.682;9.032;2022-12-13T10:39:58;5.72;;;4.25;;
13469;SDS011;6807;48.682;9.032;2022-12-13T10:42:26;11.05;;;5.85;;
13469;SDS011;6807;48.682;9.032;2022-12-13T10:45:07;7.43;;;5.75;;
13469;SDS011;6807;48.682;9.032;2022-12-13T10:47:36;14.07;;;5.78;;
13469;SDS011;6807;48.682;9.032;2022-12-13T10:50:03;13.65;;;7.13;;
13469;SDS011;6807;48.682;9.032;2022-12-13T10:52:32;16.33;;;7.53;;
13469;SDS011;6807;48.682;9.032;2022-12-13T10:55:00;12.40;;;7.25;;
13469;SDS011;6807;48.682;9.032;2022-12-13T10:57:31;11.45;;;6.95;;
13469;SDS011;6807;48.682;9.032;2022-12-13T11:00:01;14.80;;;8.63;;
13469;SDS011;6807;48.682;9.032;2022-12-13T11:02:30;12.23;;;7.35;;
13469;SDS011;6807;48.682;9.032;2022-12-13T11:07:57;13.18;;;7.70;;
13469;SDS011;6807;48.682;9.032;2022-12-13T11:10:37;11.93;;;6.70;;
13469;SDS011;6807;48.682;9.032;2022-12-13T11:13:05;10.57;;;6.30;;
13469;SDS011;6807;48.682;9.032;2022-12-13T11:15:34;14.23;;;8.73;;
13469;SDS011;6807;48.682;9.032;2022-12-13T11:18:03;15.13;;;6.85;;
13469;SDS011;6807;48.682;9.032;2022-12-13T11:20:32;11.75;;;7.63;;
13469;SDS011;6807;48.682;9.032;2022-12-13T11:23:02;10.25;;;6.60;;
13469;SDS011;6807;48.682;9.032;2022-12-13T11:25:32;8.75;;;5.50;;
13469;SDS011;6807;48.682;9.032;2022-12-13T11:28:06;6.60;;;5.05;;
13469;SDS011;6807;48.682;9.032;2022-12-13T11:30:39;7.15;;;4.60;;
13469;SDS011;6807;48.682;9.032;2022-12-13T11:33:13;11.90;;;7.20;;
13469;SDS011;6807;48.682;9.032;2022-12-13T11:35:47;8.93;;;5.00;;
13469;SDS011;6807;48.682;9.032;2022-12-13T11:38:23;6.35;;;5.15;;
13469;SDS011;6807;48.682;9.032;2022-12-13T11:40:52;12.10;;;4.88;;
13469;SDS011;6807;48.682;9.032;2022-12-13T11:43:24;7.93;;;5.30;;
13469;SDS011;6807;48.682;9.032;2022-12-13T11:45:54;10.30;;;6.65;;
13469;SDS011;6807;48.682;9.032;2022-12-13T11:48:23;12.63;;;6.30;;
13469;SDS011;6807;48.682;9.032;2022-12-13T11:50:51;6.90;;;4.57;;
13469;SDS011;6807;48.682;9.032;2022-12-13T11:53:25;12.77;;;7.53;;
13469;SDS011;6807;48.682;9.032;2022-12-13T11:55:54;3.55;;;2.92;;
13469;SDS011;6807;48.682;9.032;2022-12-13T11:58:24;7.18;;;5.10;;
13469;SDS011;6807;48.682;9.032;2022-12-13T12:00:55;12.05;;;6.72;;
13469;SDS011;6807;48.682;9.032;2022-12-13T12:03:26;8.70;;;6.60;;
13469;SDS011;6807;48.682;9.032;2022-12-13T12:05:58;13.07;;;6.53;;
13469;SDS011;6807;48.682;9.032;2022-12-13T12:11:30;6.18;;;3.80;;
13469;SDS011;6807;48.682;9.032;2022-12-13T12:13:59;8.50;;;5.53;;
13469;SDS011;6807;48.682;9.032;2022-12-13T12:16:30;11.32;;;6.82;;
13469;SDS011;6807;48.682;9.032;2022-12-13T12:19:01;8.68;;;5.55;;
13469;SDS011;6807;48.682;9.032;2022-12-13T12:21:33;14.15;;;6.95;;
13469;SDS011;6807;48.682;9.032;2022-12-13T12:24:08;9.80;;;5.07;;
13469;SDS011;6807;48.682;9.032;2022-12-13T12:26:39;10.48;;;6.20;;
13469;SDS011;6807;48.682;9.032;2022-12-13T12:29:12;9.55;;;6.38;;
13469;SDS011;6807;48.682;9.032;2022-12-13T12:31:44;12.75;;;7.65;;
13469;SDS011;6807;48.682;9.032;2022-12-13T12:34:19;5.00;;;4.05;;
13469;SDS011;6807;48.682;9.032;2022-12-13T12:36:53;10.23;;;6.10;;
13469;SDS011;6807;48.682;9.032;2022-12-13T12:39:42;11.18;;;6.63;;
13469;SDS011;6807;48.682;9.032;2022-12-13T12:42:22;8.55;;;4.68;;
13469;SDS011;6807;48.682;9.032;2022-12-13T12:44:57;11.48;;;7.30;;
13469;SDS011;6807;48.682;9.032;2022-12-13T12:47:40;10.68;;;5.95;;
13469;SDS011;6807;48.682;9.032;2022-12-13T12:50:28;9.43;;;6.05;;
13469;SDS011;6807;48.682;9.032;2022-12-13T12:56:08;12.38;;;7.47;;
13469;SDS011;6807;48.682;9.032;2022-12-13T12:58:51;11.43;;;6.90;;
13469;SDS011;6807;48.682;9.032;2022-12-13T13:01:24;9.25;;;6.05;;
13469;SDS011;6807;48.682;9.032;2022-12-13T13:03:57;8.82;;;5.30;;
13469;SDS011;6807;48.682;9.032;2022-12-13T13:06:27;13.00;;;6.30;;
13469;SDS011;6807;48.682;9.032;2022-12-13T13:08:58;9.32;;;6.32;;
13469;SDS011;6807;48.682;9.032;2022-12-13T13:11:26;4.72;;;4.18;;
13469;SDS011;6807;48.682;9.032;2022-12-13T13:14:02;13.10;;;6.10;;
13469;SDS011;6807;48.682;9.032;2022-12-13T13:16:35;7.85;;;5.28;;
13469;SDS011;6807;48.682;9.032;2022-12-13T13:21:56;11.80;;;6.43;;
13469;SDS011;6807;48.682;9.032;2022-12-13T13:24:24;10.25;;;5.95;;
13469;SDS011;6807;48.682;9.032;2022-12-13T13:26:53;10.02;;;6.18;;
13469;SDS011;6807;48.682;9.032;2022-12-13T13:29:32;6.22;;;3.75;;
13469;SDS011;6807;48.682;9.032;2022-12-13T13:32:02;14.75;;;5.35;;
13469;SDS011;6807;48.682;9.032;2022-12-13T13:34:34;11.80;;;6.40;;
13469;SDS011;6807;48.682;9.032;2022-12-13T13:37:04;10.55;;;6.00;;
13469;SDS011;6807;48.682;9.032;2022-12-13T13:52:05;5.57;;;4.38;;
13469;SDS011;6807;48.682;9.032;2022-12-13T14:06:31;18.63;;;6.03;;
13469;SDS011;6807;48.682;9.032;2022-12-13T14:09:29;9.25;;;5.53;;
13469;SDS011;6807;48.682;9.032;2022-12-13T14:12:28;8.45;;;5.57;;
13469;SDS011;6807;48.682;9.032;2022-12-13T14:15:08;11.00;;;6.28;;
13469;SDS011;6807;48.682;9.032;2022-12-13T14:20:51;10.00;;;5.93;;
13469;SDS011;6807;48.682;9.032;2022-12-13T14:23:30;12.38;;;6.65;;
13469;SDS011;6807;48.682;9.032;2022-12-13T14:26:05;9.68;;;6.40;;
13469;SDS011;6807;48.682;9.032;2022-12-13T14:28:40;14.05;;;7.72;;
13469;SDS011;6807;48.682;9.032;2022-12-13T14:49:37;7.43;;;4.70;;
13469;SDS011;6807;48.682;9.032;2022-12-13T14:52:05;6.40;;;4.50;;
13469;SDS011;6807;48.682;9.032;2022-12-13T14:54:36;10.35;;;5.03;;
13469;SDS011;6807;48.682;9.032;2022-12-13T14:57:12;9.95;;;4.72;;
13469;SDS011;6807;48.682;9.032;2022-12-13T14:59:43;3.58;;;3.13;;
13469;SDS011;6807;48.682;9.032;2022-12-13T15:02:13;6.18;;;5.43;;
13469;SDS011;6807;48.682;9.032;2022-12-13T15:04:42;7.72;;;4.93;;
13469;SDS011;6807;48.682;9.032;2022-12-13T15:07:12;8.93;;;5.50;;
13469;SDS011;6807;48.682;9.032;2022-12-13T15:09:41;7.95;;;5.10;;
13469;SDS011;6807;48.682;9.032;2022-12-13T15:12:10;11.52;;;6.15;;
13469;SDS011;6807;48.682;9.032;2022-12-13T15:14:41;6.38;;;4.68;;
13469;SDS011;6807;48.682;9.032;2022-12-13T15:17:19;11.83;;;6.33;;
13469;SDS011;6807;48.682;9.032;2022-12-13T15:19:54;8.93;;;5.85;;
13469;SDS011;6807;48.682;9.032;2022-12-13T15:22:22;4.95;;;3.97;;
13469;SDS011;6807;48.682;9.032;2022-12-13T15:24:50;6.47;;;4.63;;
13469;SDS011;6807;48.682;9.032;2022-12-13T15:27:19;9.63;;;5.07;;
13469;SDS011;6807;48.682;9.032;2022-12-13T15:29:49;16.90;;;6.20;;
13469;SDS011;6807;48.682;9.032;2022-12-13T15:32:18;9.80;;;5.88;;
13469;SDS011;6807;48.682;9.032;2022-12-13T15:34:49;10.77;;;5.88;;
13469;SDS011;6807;48.682;9.032;2022-12-13T15:37:21;14.77;;;6.93;;
13469;SDS011;6807;48.682;9.032;2022-12-13T15:39:50;18.17;;;9.43;;
13469;SDS011;6807;48.682;9.032;2022-12-13T15:42:20;12.77;;;6.93;;
13469;SDS011;6807;48.682;9.032;2022-12-13T15:44:49;7.60;;;4.97;;
13469;SDS011;6807;48.682;9.032;2022-12-13T15:47:18;14.35;;;6.05;;
13469;SDS011;6807;48.682;9.032;2022-12-13T15:49:49;15.45;;;6.25;;
13469;SDS011;6807;48.682;9.032;2022-12-13T15:52:29;12.95;;;5.50;;
13469;SDS011;6807;48.682;9.032;2022-12-13T15:54:57;11.68;;;6.03;;
13469;SDS011;6807;48.682;9.032;2022-12-13T15:57:26;8.15;;;5.28;;
13469;SDS011;6807;48.682;9.032;2022-12-13T16:00:02;8.05;;;4.65;;
13469;SDS011;6807;48.682;9.032;2022-12-13T16:02:31;10.40;;;6.32;;
13469;SDS011;6807;48.682;9.032;2022-12-13T16:05:04;12.68;;;7.28;;
13469;SDS011;6807;48.682;9.032;2022-12-13T16:07:36;11.23;;;6.00;;
13469;SDS011;6807;48.682;9.032;2022-12-13T16:10:06;11.90;;;5.53;;
13469;SDS011;6807;48.682;9.032;2022-12-13T16:12:36;14.18;;;5.07;;
13469;SDS011;6807;48.682;9.032;2022-12-13T16:15:12;9.38;;;6.25;;
13469;SDS011;6807;48.682;9.032;2022-12-13T16:17:48;10.45;;;5.88;;
13469;SDS011;6807;48.682;9.032;2022-12-13T16:20:17;15.63;;;5.47;;
13469;SDS011;6807;48.682;9.032;2022-12-13T16:22:46;10.25;;;5.63;;
13469;SDS011;6807;48.682;9.032;2022-12-13T16:25:15;7.90;;;5.35;;
13469;SDS011;6807;48.682;9.032;2022-12-13T16:27:45;9.25;;;6.93;;
13469;SDS011;6807;48.682;9.032;2022-12-13T16:30:20;8.18;;;5.78;;